Time;durP1;ratioP1;P1;durP2;ratioP2;P2;SDS_P1;SDS_P2;PMS_P1;PMS_P2;Temp;Humidity;BMP_temperature;BMP_pressure;BME280_temperature;BME280_humidity;BME280_pressure;Samples;Min_cycle;Max_cycle;Signal;HPM_P1;HPM_P2
2021/12/02 00:01:35;;;;;;;4.10;1.70;;;5.20;99.90;;;;;;5072541;28;20040;-78
2021/12/02 00:04:01;;;;;;;8.18;1.60;;;5.20;99.90;;;;;;5067762;28;20043;-78
2021/12/02 00:06:27;;;;;;;6.45;2.03;;;5.10;99.90;;;;;;5061810;28;20032;-77
2021/12/02 00:08:52;;;;;;;6.57;1.65;;;5.20;99.90;;;;;;5073706;28;20075;-76
2021/12/02 00:11:18;;;;;;;3.35;1.48;;;5.10;99.90;;;;;;5072339;28;20033;-78
2021/12/02 00:21:20;;;;;;;8.02;1.60;;;5.10;99.90;;;;;;5072299;28;20066;-77
2021/12/02 00:23:59;;;;;;;5.97;1.38;;;5.10;99.90;;;;;;5071955;28;20481;-77
2021/12/02 00:26:26;;;;;;;12.02;2.28;;;5.10;99.90;;;;;;5071838;28;20062;-77
2021/12/02 00:28:55;;;;;;;3.90;1.50;;;5.10;99.90;;;;;;5070598;28;20516;-77
2021/12/02 00:31:23;;;;;;;6.18;1.67;;;5.00;99.90;;;;;;5071990;28;20373;-77
2021/12/02 00:33:53;;;;;;;3.25;1.92;;;5.10;99.90;;;;;;5071359;28;20041;-78
2021/12/02 00:36:24;;;;;;;12.45;1.90;;;5.10;99.90;;;;;;5071897;28;20127;-78
2021/12/02 00:38:51;;;;;;;11.00;1.77;;;5.10;99.90;;;;;;5071680;28;20048;-77
2021/12/02 00:41:19;;;;;;;9.38;1.77;;;5.10;99.90;;;;;;5071715;28;20108;-77
2021/12/02 00:43:45;;;;;;;7.97;1.77;;;5.10;99.90;;;;;;5071122;28;20097;-77
2021/12/02 00:46:14;;;;;;;7.28;1.63;;;5.00;99.90;;;;;;5071630;28;20045;-77
2021/12/02 00:48:41;;;;;;;7.45;1.75;;;5.10;99.90;;;;;;5071258;28;20488;-77
2021/12/02 00:51:08;;;;;;;8.25;1.75;;;5.10;99.90;;;;;;5071450;28;20041;-77
2021/12/02 00:53:35;;;;;;;5.63;1.85;;;5.10;99.90;;;;;;5054404;28;20037;-77
2021/12/02 00:56:06;;;;;;;9.80;2.10;;;5.10;99.90;;;;;;5071441;28;20040;-77
2021/12/02 00:58:32;;;;;;;6.60;1.63;;;5.10;99.90;;;;;;5071491;28;20062;-77
2021/12/02 01:01:00;;;;;;;6.07;1.35;;;5.10;99.90;;;;;;5071105;28;20041;-76
2021/12/02 01:03:30;;;;;;;1.45;1.05;;;5.10;99.90;;;;;;5070727;28;20040;-77
2021/12/02 01:05:56;;;;;;;7.43;2.55;;;5.00;99.90;;;;;;5071227;28;20048;-77
2021/12/02 01:08:22;;;;;;;4.47;1.25;;;5.00;99.90;;;;;;5071368;28;20107;-77
2021/12/02 01:10:47;;;;;;;6.07;1.77;;;5.00;99.90;;;;;;5072309;28;20044;-76
2021/12/02 01:13:13;;;;;;;4.05;1.60;;;5.00;99.90;;;;;;5070699;28;20051;-77
2021/12/02 01:15:39;;;;;;;8.23;1.38;;;5.00;99.90;;;;;;5071727;28;20500;-77
2021/12/02 01:18:04;;;;;;;5.93;1.55;;;4.90;99.90;;;;;;5072157;28;20064;-76
2021/12/02 01:20:32;;;;;;;5.93;1.60;;;4.90;99.90;;;;;;5070647;28;20667;-77
2021/12/02 01:22:59;;;;;;;9.57;2.38;;;4.90;99.90;;;;;;5070373;28;20032;-77
2021/12/02 01:25:27;;;;;;;4.55;1.30;;;4.80;99.90;;;;;;5071959;28;20036;-77
2021/12/02 01:27:55;;;;;;;4.82;1.38;;;4.80;99.90;;;;;;5072091;28;20434;-76
2021/12/02 01:30:21;;;;;;;5.82;1.55;;;4.80;99.90;;;;;;5070604;28;20040;-77
2021/12/02 01:32:48;;;;;;;7.88;1.45;;;4.80;99.90;;;;;;5070253;28;20048;-77
2021/12/02 01:35:19;;;;;;;3.60;1.33;;;4.80;99.90;;;;;;5070682;28;20404;-77
2021/12/02 01:37:45;;;;;;;3.03;1.50;;;4.80;99.90;;;;;;5070749;28;20076;-77
2021/12/02 01:40:11;;;;;;;4.85;1.45;;;4.70;99.90;;;;;;5070089;28;20086;-77
2021/12/02 01:42:39;;;;;;;7.93;1.42;;;4.70;99.90;;;;;;5070421;28;20078;-77
2021/12/02 01:45:06;;;;;;;3.45;1.40;;;4.70;99.90;;;;;;5070561;28;20404;-77
2021/12/02 01:47:36;;;;;;;5.60;1.58;;;4.70;99.90;;;;;;5070667;28;20451;-77
2021/12/02 01:50:04;;;;;;;5.72;1.48;;;4.70;99.90;;;;;;5072000;28;20048;-77
2021/12/02 01:52:32;;;;;;;4.93;1.20;;;4.70;99.90;;;;;;5070419;28;20047;-77
2021/12/02 01:55:16;;;;;;;4.65;1.33;;;4.80;99.90;;;;;;5070274;28;20060;-77
2021/12/02 01:58:03;;;;;;;5.07;1.80;;;4.80;99.90;;;;;;5070457;28;20040;-77
2021/12/02 02:00:44;;;;;;;6.25;1.40;;;4.80;99.90;;;;;;5070295;28;20045;-77
2021/12/02 02:03:11;;;;;;;5.22;1.42;;;4.80;99.90;;;;;;5053418;28;20037;-77
2021/12/02 02:05:37;;;;;;;11.32;1.50;;;4.80;99.90;;;;;;5071659;28;20111;-77
2021/12/02 02:08:16;;;;;;;6.45;1.45;;;4.90;99.90;;;;;;5053644;28;20048;-77
2021/12/02 02:10:43;;;;;;;4.68;1.33;;;4.90;99.90;;;;;;5071664;28;20048;-77
2021/12/02 02:13:10;;;;;;;9.73;2.20;;;4.90;99.90;;;;;;5070059;28;20123;-77
2021/12/02 02:15:37;;;;;;;6.43;1.40;;;4.90;99.90;;;;;;5069878;28;20040;-77
2021/12/02 02:21:10;;;;;;;6.63;1.40;;;4.70;99.90;;;;;;5069974;28;20082;-77
2021/12/02 02:23:43;;;;;;;4.05;1.90;;;4.60;99.90;;;;;;5015524;28;20044;-77
2021/12/02 02:26:09;;;;;;;6.05;1.30;;;4.70;99.90;;;;;;5065181;28;20049;-77
2021/12/02 02:28:36;;;;;;;4.47;1.00;;;4.70;99.90;;;;;;5070026;28;20048;-76
2021/12/02 02:31:03;;;;;;;3.20;1.65;;;4.60;99.90;;;;;;5069790;28;20458;-72
2021/12/02 02:33:36;;;;;;;5.18;1.40;;;4.50;99.90;;;;;;5070360;28;20047;-71
2021/12/02 02:36:06;;;;;;;2.53;1.35;;;4.60;99.90;;;;;;5069252;28;20048;-71
2021/12/02 02:38:33;;;;;;;2.70;0.90;;;4.50;99.90;;;;;;5070599;28;20151;-71
2021/12/02 02:41:00;;;;;;;5.47;1.92;;;4.50;99.90;;;;;;5069401;28;20459;-70
2021/12/02 02:43:27;;;;;;;3.67;1.90;;;4.50;99.90;;;;;;5070068;28;20399;-70
2021/12/02 02:45:53;;;;;;;1.83;0.93;;;4.50;99.90;;;;;;5069082;28;20043;-70
2021/12/02 02:48:19;;;;;;;2.58;0.95;;;4.40;99.90;;;;;;5069037;28;20473;-70
2021/12/02 02:50:44;;;;;;;0.95;0.95;;;4.40;99.90;;;;;;5068972;28;20071;-71
2021/12/02 02:53:18;;;;;;;2.92;0.90;;;4.30;99.90;;;;;;5073178;28;20110;-72
2021/12/02 02:55:54;;;;;;;4.60;1.30;;;4.30;99.90;;;;;;5072957;28;20054;-71
2021/12/02 02:58:48;;;;;;;3.63;0.98;;;4.20;99.90;;;;;;5072678;28;20083;-72
2021/12/02 03:04:09;;;;;;;2.15;1.08;;;4.20;99.90;;;;;;5072204;28;20037;-72
2021/12/02 03:06:50;;;;;;;3.38;1.20;;;4.20;99.90;;;;;;5073066;28;20399;-72
2021/12/02 03:12:17;;;;;;;5.15;1.10;;;4.20;99.90;;;;;;5072852;28;20040;-73
2021/12/02 03:17:11;;;;;;;5.22;1.27;;;4.20;99.90;;;;;;5072809;28;20053;-73
2021/12/02 03:19:41;;;;;;;2.17;1.00;;;4.20;99.90;;;;;;5074199;28;20060;-73
2021/12/02 03:22:07;;;;;;;2.28;0.85;;;4.10;99.90;;;;;;5055779;28;20122;-74
2021/12/02 03:24:33;;;;;;;1.92;1.05;;;4.20;99.90;;;;;;5072695;28;20075;-74
2021/12/02 03:26:58;;;;;;;3.22;1.10;;;4.10;99.90;;;;;;5072687;28;20040;-74
2021/12/02 03:29:25;;;;;;;1.75;1.00;;;4.00;99.90;;;;;;5072786;28;20404;-74
2021/12/02 03:31:50;;;;;;;6.10;0.90;;;4.10;99.90;;;;;;5055706;28;20040;-75
2021/12/02 03:34:17;;;;;;;1.92;1.17;;;4.00;99.90;;;;;;5072628;28;20097;-75
2021/12/02 03:36:42;;;;;;;4.32;1.20;;;4.00;99.90;;;;;;5072604;28;20524;-75
2021/12/02 03:39:11;;;;;;;3.55;1.00;;;3.90;99.90;;;;;;5072669;28;20037;-75
2021/12/02 03:41:39;;;;;;;1.00;0.80;;;3.80;99.90;;;;;;5072404;28;20074;-75
2021/12/02 03:44:05;;;;;;;2.92;0.90;;;4.00;99.90;;;;;;5072140;28;20102;-75
2021/12/02 03:46:31;;;;;;;4.00;1.42;;;3.90;99.90;;;;;;5072415;28;20052;-75
2021/12/02 03:48:58;;;;;;;1.10;0.80;;;3.90;99.90;;;;;;5072264;28;20045;-76
2021/12/02 03:51:24;;;;;;;1.23;0.98;;;3.80;99.90;;;;;;5072144;28;20127;-76
2021/12/02 03:53:50;;;;;;;1.77;1.10;;;3.80;99.90;;;;;;5071866;28;20082;-76
2021/12/02 03:56:16;;;;;;;6.53;1.45;;;3.80;99.90;;;;;;5072110;28;20044;-76
2021/12/02 03:58:44;;;;;;;1.33;1.00;;;3.70;99.90;;;;;;5072118;28;20493;-76
2021/12/02 04:01:10;;;;;;;1.52;1.20;;;3.70;99.90;;;;;;5072163;28;20119;-76
2021/12/02 04:03:36;;;;;;;2.22;1.05;;;3.70;99.90;;;;;;5071765;28;20493;-76
2021/12/02 04:06:03;;;;;;;1.13;1.10;;;3.60;99.90;;;;;;5072390;28;20068;-76
2021/12/02 04:11:22;;;;;;;1.35;1.25;;;3.60;99.90;;;;;;5072022;28;20153;-76
2021/12/02 04:14:04;;;;;;;3.67;1.08;;;3.70;99.90;;;;;;5071729;28;20028;-76
2021/12/02 04:16:33;;;;;;;1.65;1.05;;;3.70;99.90;;;;;;5071206;28;20104;-76
2021/12/02 04:18:59;;;;;;;1.92;1.10;;;3.70;99.90;;;;;;5054923;28;20097;-76
2021/12/02 04:21:25;;;;;;;2.63;1.10;;;3.60;99.90;;;;;;5071704;28;20442;-77
2021/12/02 04:23:50;;;;;;;2.83;1.25;;;3.60;99.90;;;;;;5071676;28;20573;-77
2021/12/02 04:26:16;;;;;;;4.57;1.30;;;3.70;99.90;;;;;;5071470;28;20606;-77
2021/12/02 04:28:42;;;;;;;1.73;0.85;;;3.60;99.90;;;;;;5071599;28;20388;-76
2021/12/02 04:31:07;;;;;;;1.90;0.90;;;3.70;99.90;;;;;;5071715;28;20044;-77
2021/12/02 04:33:33;;;;;;;1.17;0.90;;;3.80;99.90;;;;;;5071222;28;20043;-78
2021/12/02 04:36:00;;;;;;;2.00;0.82;;;3.80;99.90;;;;;;5071815;28;20434;-78
2021/12/02 04:38:27;;;;;;;12.20;2.25;;;3.80;99.90;;;;;;5071451;28;20044;-77
2021/12/02 04:40:54;;;;;;;5.68;2.28;;;3.80;99.90;;;;;;5071167;28;20067;-78
2021/12/02 04:43:19;;;;;;;2.08;1.20;;;3.80;99.90;;;;;;5071124;28;20392;-77
2021/12/02 04:45:45;;;;;;;1.58;1.10;;;3.80;99.90;;;;;;5071274;28;20048;-77
2021/12/02 04:48:10;;;;;;;2.65;1.25;;;3.90;99.90;;;;;;5072217;28;20036;-77
2021/12/02 04:50:36;;;;;;;3.97;1.13;;;3.90;99.90;;;;;;5071077;28;20063;-77
2021/12/02 04:53:02;;;;;;;4.22;1.20;;;3.80;99.90;;;;;;5070612;28;20465;-77
2021/12/02 04:55:27;;;;;;;2.28;1.23;;;3.80;99.90;;;;;;5070827;28;20416;-77
2021/12/02 04:57:54;;;;;;;1.40;1.20;;;3.80;99.90;;;;;;5071127;28;20131;-77
2021/12/02 05:00:20;;;;;;;2.45;1.77;;;3.90;99.90;;;;;;5054205;28;20044;-77
2021/12/02 05:02:45;;;;;;;1.65;1.10;;;3.80;99.90;;;;;;5053975;28;20036;-78
2021/12/02 05:05:11;;;;;;;2.00;1.10;;;3.70;99.90;;;;;;5074207;28;20037;-78
2021/12/02 05:07:37;;;;;;;4.70;1.00;;;3.70;99.90;;;;;;5073305;28;20109;-78
2021/12/02 05:10:04;;;;;;;4.22;1.00;;;3.70;99.90;;;;;;5071092;28;20435;-77
2021/12/02 05:12:30;;;;;;;1.17;1.08;;;3.70;99.90;;;;;;5070640;28;20129;-78
2021/12/02 05:14:56;;;;;;;1.52;1.40;;;3.70;99.90;;;;;;5069284;28;20095;-77
2021/12/02 05:17:21;;;;;;;2.13;0.90;;;3.70;99.90;;;;;;5070873;28;20064;-78
2021/12/02 05:19:47;;;;;;;2.67;1.27;;;3.70;99.90;;;;;;5070517;28;20045;-77
2021/12/02 05:22:13;;;;;;;3.08;1.05;;;3.70;99.90;;;;;;5070314;28;20663;-77
2021/12/02 05:24:39;;;;;;;1.83;0.93;;;3.70;99.90;;;;;;5070311;28;20040;-77
2021/12/02 05:27:05;;;;;;;4.82;1.40;;;3.70;99.90;;;;;;5070510;28;20067;-77
2021/12/02 05:29:31;;;;;;;1.63;1.10;;;3.70;99.90;;;;;;5070463;28;20052;-77
2021/12/02 05:31:57;;;;;;;3.58;1.63;;;3.70;99.90;;;;;;5053618;28;20037;-77
2021/12/02 05:34:23;;;;;;;1.58;1.13;;;3.70;99.90;;;;;;5070359;28;20048;-77
2021/12/02 05:36:49;;;;;;;3.38;1.98;;;3.70;99.90;;;;;;5070496;28;20044;-78
2021/12/02 05:39:14;;;;;;;1.60;1.10;;;3.70;99.90;;;;;;5070133;28;20043;-77
2021/12/02 05:41:40;;;;;;;2.60;2.40;;;3.70;99.90;;;;;;5053646;28;20045;-77
2021/12/02 05:44:05;;;;;;;3.03;2.70;;;3.80;99.90;;;;;;5069992;28;20481;-77
2021/12/02 05:46:32;;;;;;;4.15;1.80;;;3.80;99.90;;;;;;5070174;28;20047;-76
2021/12/02 05:48:58;;;;;;;4.75;1.52;;;3.70;99.90;;;;;;5070217;28;20523;-77
2021/12/02 05:51:24;;;;;;;4.20;1.30;;;3.60;99.90;;;;;;5070086;28;20041;-77
2021/12/02 05:53:49;;;;;;;2.60;1.40;;;3.70;99.90;;;;;;5069683;28;20474;-76
2021/12/02 05:56:15;;;;;;;1.65;1.13;;;3.70;99.90;;;;;;5070107;28;20052;-76
2021/12/02 05:58:41;;;;;;;2.22;2.00;;;3.70;99.90;;;;;;5069855;28;20051;-76
2021/12/02 06:01:06;;;;;;;5.00;2.63;;;3.70;99.90;;;;;;5069889;28;20044;-76
2021/12/02 06:03:36;;;;;;;4.55;2.92;;;3.70;99.90;;;;;;5069636;28;20047;-76
2021/12/02 06:06:02;;;;;;;5.43;3.35;;;3.70;99.90;;;;;;5069971;28;20040;-76
2021/12/02 06:08:27;;;;;;;4.20;2.47;;;3.70;99.90;;;;;;5069786;28;20040;-76
2021/12/02 06:10:53;;;;;;;4.18;2.42;;;3.60;99.90;;;;;;5069903;28;20377;-75
2021/12/02 06:13:19;;;;;;;5.10;3.45;;;3.60;99.90;;;;;;5069536;28;20043;-76
2021/12/02 06:15:44;;;;;;;6.10;2.80;;;3.60;99.90;;;;;;5069206;28;20036;-75
2021/12/02 06:18:10;;;;;;;6.88;3.05;;;3.60;99.90;;;;;;5069956;28;20048;-75
2021/12/02 06:20:35;;;;;;;6.22;3.00;;;3.60;99.90;;;;;;5070764;28;20087;-75
2021/12/02 06:23:01;;;;;;;2.00;1.63;;;3.60;99.90;;;;;;5069652;28;20036;-75
2021/12/02 06:27:53;;;;;;;1.25;1.15;;;3.60;99.90;;;;;;5073873;28;20044;-75
2021/12/02 06:30:25;;;;;;;2.78;1.20;;;3.60;99.90;;;;;;5073778;28;20036;-75
2021/12/02 06:32:51;;;;;;;4.85;1.08;;;3.50;99.90;;;;;;5073432;28;20044;-75
2021/12/02 06:35:17;;;;;;;3.72;2.05;;;3.60;99.90;;;;;;5073464;28;20051;-75
2021/12/02 06:37:46;;;;;;;2.78;2.30;;;3.60;99.90;;;;;;5073746;28;20040;-75
2021/12/02 06:40:13;;;;;;;2.95;1.50;;;3.60;99.90;;;;;;5073503;28;20113;-74
2021/12/02 06:42:39;;;;;;;1.83;1.00;;;3.60;99.90;;;;;;5073029;28;20039;-76
2021/12/02 06:45:05;;;;;;;1.88;1.30;;;3.60;99.90;;;;;;5073358;28;20052;-75
2021/12/02 06:47:35;;;;;;;1.25;1.10;;;3.60;99.90;;;;;;5073396;28;20043;-78
2021/12/02 06:50:02;;;;;;;4.15;1.65;;;3.60;99.90;;;;;;5073755;28;20130;-76
2021/12/02 06:52:29;;;;;;;10.75;4.25;;;3.70;99.90;;;;;;5073205;28;20354;-76
2021/12/02 06:54:55;;;;;;;4.10;1.88;;;3.60;99.90;;;;;;5073560;28;20048;-77
2021/12/02 06:57:20;;;;;;;3.50;1.30;;;3.70;99.90;;;;;;5073210;28;20519;-77
2021/12/02 06:59:46;;;;;;;1.17;1.08;;;3.70;99.90;;;;;;5073996;28;20075;-77
2021/12/02 07:02:12;;;;;;;1.27;1.17;;;3.70;99.90;;;;;;5072783;28;20565;-78
2021/12/02 07:04:38;;;;;;;1.50;1.40;;;3.70;99.90;;;;;;5069884;28;20040;-78
2021/12/02 07:07:03;;;;;;;4.72;2.17;;;3.70;99.90;;;;;;5072987;28;20408;-77
2021/12/02 07:09:29;;;;;;;4.18;3.20;;;3.70;99.90;;;;;;5073126;28;20083;-77
2021/12/02 07:11:55;;;;;;;4.80;1.75;;;3.80;99.90;;;;;;5072691;28;20067;-78
2021/12/02 07:14:21;;;;;;;5.03;1.90;;;3.70;99.90;;;;;;5072200;28;20036;-78
2021/12/02 07:16:47;;;;;;;2.97;1.42;;;3.80;99.90;;;;;;5072900;28;20076;-78
2021/12/02 07:19:13;;;;;;;2.33;1.55;;;3.80;99.90;;;;;;5072846;28;20137;-78
2021/12/02 07:21:40;;;;;;;2.70;1.70;;;3.80;99.90;;;;;;5072622;28;20496;-77
2021/12/02 07:24:07;;;;;;;3.33;1.30;;;3.80;99.90;;;;;;5072188;28;20051;-74
2021/12/02 07:26:39;;;;;;;4.00;1.70;;;3.80;99.90;;;;;;5071038;28;20045;-74
2021/12/02 07:29:05;;;;;;;3.85;1.52;;;3.80;99.90;;;;;;5070549;28;20046;-74
2021/12/02 07:31:31;;;;;;;1.60;1.20;;;3.80;99.90;;;;;;5071582;28;20127;-74
2021/12/02 07:33:58;;;;;;;5.18;1.35;;;3.70;99.90;;;;;;5071289;28;20516;-74
2021/12/02 07:36:24;;;;;;;2.50;1.20;;;3.80;99.90;;;;;;5072283;28;20529;-73
2021/12/02 07:38:50;;;;;;;1.30;1.20;;;3.80;99.90;;;;;;5071589;28;20062;-73
2021/12/02 07:41:16;;;;;;;2.60;1.65;;;3.80;99.90;;;;;;5071967;28;20173;-73
2021/12/02 07:43:42;;;;;;;2.20;1.38;;;3.80;99.90;;;;;;5072152;28;20139;-73
2021/12/02 07:46:09;;;;;;;2.75;1.17;;;3.80;99.90;;;;;;5073492;28;20060;-73
2021/12/02 07:48:36;;;;;;;1.30;1.20;;;3.80;99.90;;;;;;5072297;28;20484;-73
2021/12/02 07:51:08;;;;;;;2.90;1.38;;;3.80;99.90;;;;;;5071990;28;20040;-73
2021/12/02 07:53:34;;;;;;;3.53;1.45;;;3.80;99.90;;;;;;5072096;28;20098;-74
2021/12/02 07:56:03;;;;;;;4.65;2.13;;;3.80;99.90;;;;;;5072095;28;20130;-74
2021/12/02 07:58:30;;;;;;;3.45;1.63;;;3.80;99.90;;;;;;5073645;28;20123;-74
2021/12/02 08:01:00;;;;;;;4.50;1.60;;;3.80;99.90;;;;;;5071648;28;20040;-73
2021/12/02 08:03:26;;;;;;;1.98;1.88;;;3.80;99.90;;;;;;5072692;28;20128;-73
2021/12/02 08:05:52;;;;;;;4.20;2.13;;;3.70;99.90;;;;;;5071481;28;20040;-73
2021/12/02 08:08:18;;;;;;;2.17;1.92;;;3.80;99.90;;;;;;5071577;28;20036;-75
2021/12/02 08:10:45;;;;;;;3.35;1.88;;;3.70;99.90;;;;;;5071666;28;20176;-76
2021/12/02 08:13:13;;;;;;;80.43;5.40;;;3.80;99.90;;;;;;5054902;28;20044;-77
2021/12/02 08:15:40;;;;;;;3.50;1.83;;;3.80;99.90;;;;;;5057311;28;20044;-75
2021/12/02 08:18:05;;;;;;;4.38;2.13;;;3.80;99.90;;;;;;5051460;28;20045;-75
2021/12/02 08:20:32;;;;;;;3.20;1.77;;;3.90;99.90;;;;;;5051435;28;20493;-75
2021/12/02 08:22:58;;;;;;;2.70;1.65;;;3.90;99.90;;;;;;5051367;28;20040;-76
2021/12/02 08:25:27;;;;;;;2.35;1.58;;;3.80;99.90;;;;;;5059029;28;20040;-75
2021/12/02 08:27:54;;;;;;;3.83;1.67;;;3.70;99.90;;;;;;5072692;28;20210;-74
2021/12/02 08:30:23;;;;;;;2.15;1.45;;;3.80;99.90;;;;;;5071381;28;20109;-76
2021/12/02 08:32:49;;;;;;;2.67;1.35;;;3.80;99.90;;;;;;5072021;28;20094;-78
2021/12/02 08:35:16;;;;;;;2.45;1.50;;;3.80;99.90;;;;;;5070845;28;20071;-74
2021/12/02 08:37:46;;;;;;;1.35;1.25;;;3.90;99.90;;;;;;5071043;28;20032;-68
2021/12/02 08:40:18;;;;;;;1.77;1.40;;;3.90;99.90;;;;;;5072123;28;20048;-68
2021/12/02 08:42:46;;;;;;;1.83;1.50;;;3.90;99.90;;;;;;5070399;28;20047;-68
2021/12/02 08:45:13;;;;;;;1.60;1.50;;;3.70;99.90;;;;;;5070630;28;20043;-68
2021/12/02 08:47:44;;;;;;;3.25;1.60;;;3.80;99.90;;;;;;5071894;28;20400;-68
2021/12/02 08:50:17;;;;;;;3.08;1.70;;;3.80;99.90;;;;;;5070907;28;20636;-68
2021/12/02 08:52:44;;;;;;;2.50;1.55;;;3.80;99.90;;;;;;5053563;28;20052;-68
2021/12/02 08:55:11;;;;;;;4.00;1.83;;;3.80;99.90;;;;;;5071822;28;20044;-68
2021/12/02 08:57:36;;;;;;;2.08;1.45;;;3.90;99.90;;;;;;5071713;28;20052;-68
2021/12/02 09:00:05;;;;;;;1.77;1.55;;;3.90;99.90;;;;;;5070158;28;20044;-68
2021/12/02 09:02:30;;;;;;;1.50;1.40;;;4.00;99.90;;;;;;5069852;28;20039;-68
2021/12/02 09:04:57;;;;;;;5.65;1.77;;;4.00;99.90;;;;;;5071554;28;20381;-68
2021/12/02 09:07:23;;;;;;;1.48;1.38;;;4.00;99.90;;;;;;5071627;28;20040;-68
2021/12/02 09:09:49;;;;;;;2.35;1.38;;;4.00;99.90;;;;;;5071519;28;20047;-67
2021/12/02 09:12:14;;;;;;;1.85;1.40;;;4.00;99.90;;;;;;5071183;28;20119;-67
2021/12/02 09:14:40;;;;;;;2.78;1.30;;;4.00;99.90;;;;;;5070751;28;20071;-67
2021/12/02 09:17:06;;;;;;;1.23;1.10;;;3.90;99.90;;;;;;5071453;28;20082;-68
2021/12/02 09:19:31;;;;;;;1.40;1.30;;;4.00;99.90;;;;;;5069904;28;20036;-68
2021/12/02 09:21:57;;;;;;;1.20;1.10;;;4.00;99.90;;;;;;5071209;28;20485;-68
2021/12/02 09:24:23;;;;;;;1.50;1.40;;;3.90;99.90;;;;;;5071554;28;20455;-68
2021/12/02 09:26:50;;;;;;;1.73;1.13;;;3.90;99.90;;;;;;5071328;28;20091;-67
2021/12/02 09:29:18;;;;;;;1.88;1.15;;;3.90;99.90;;;;;;5070271;28;20366;-68
2021/12/02 09:31:45;;;;;;;4.22;1.80;;;3.90;99.90;;;;;;5071195;28;20067;-67
2021/12/02 09:34:11;;;;;;;1.38;1.27;;;3.90;99.90;;;;;;5069828;28;20040;-68
2021/12/02 09:36:37;;;;;;;4.50;1.30;;;3.90;99.90;;;;;;5071525;28;20047;-68
2021/12/02 09:39:05;;;;;;;1.40;1.30;;;3.90;99.90;;;;;;5069904;28;20124;-68
2021/12/02 09:41:31;;;;;;;1.48;1.30;;;3.90;99.90;;;;;;5069797;28;20032;-68
2021/12/02 09:43:56;;;;;;;1.52;1.35;;;3.90;99.90;;;;;;5071011;28;20113;-67
2021/12/02 09:46:22;;;;;;;3.15;1.38;;;3.90;99.90;;;;;;5071396;28;20044;-68
2021/12/02 09:48:48;;;;;;;1.20;1.10;;;4.00;99.90;;;;;;5069682;28;20484;-68
2021/12/02 09:51:27;;;;;;;5.05;1.35;;;4.00;99.90;;;;;;5071120;28;20186;-68
2021/12/02 09:53:55;;;;;;;2.90;1.33;;;4.00;99.90;;;;;;5070654;28;20189;-68
2021/12/02 09:56:29;;;;;;;4.18;1.50;;;4.10;99.90;;;;;;5071273;28;20368;-68
2021/12/02 09:59:03;;;;;;;1.67;1.30;;;4.10;99.90;;;;;;5071067;28;20036;-68
2021/12/02 10:01:39;;;;;;;2.72;1.38;;;4.20;99.90;;;;;;5069485;28;20040;-68
2021/12/02 10:04:05;;;;;;;1.38;1.27;;;4.20;99.90;;;;;;5069410;28;20068;-68
2021/12/02 10:06:32;;;;;;;1.52;1.42;;;4.20;99.90;;;;;;5070816;28;20048;-68
2021/12/02 10:09:13;;;;;;;1.20;1.10;;;4.30;99.90;;;;;;5069607;28;20036;-68
2021/12/02 10:14:30;;;;;;;3.33;1.40;;;4.40;99.90;;;;;;5070828;28;20098;-68
2021/12/02 10:17:19;;;;;;;2.17;1.27;;;4.40;99.90;;;;;;5069456;28;20303;-68
2021/12/02 10:22:37;;;;;;;3.30;0.98;;;4.50;99.90;;;;;;5070486;28;20105;-67
2021/12/02 10:25:03;;;;;;;2.53;1.23;;;4.60;99.90;;;;;;5070841;28;20124;-68
2021/12/02 10:27:29;;;;;;;1.90;1.30;;;4.60;99.90;;;;;;5069317;28;20062;-68
2021/12/02 10:29:54;;;;;;;2.85;1.50;;;4.70;99.90;;;;;;5070728;28;20032;-68
2021/12/02 10:32:22;;;;;;;1.35;1.25;;;4.70;99.90;;;;;;5070241;28;20032;-67
2021/12/02 10:35:01;;;;;;;3.17;1.30;;;4.60;99.90;;;;;;5070428;28;20036;-68
2021/12/02 10:37:30;;;;;;;2.72;1.15;;;4.60;99.90;;;;;;5070420;28;20051;-68
2021/12/02 10:40:03;;;;;;;1.20;1.10;;;4.60;99.90;;;;;;5070625;28;20043;-68
2021/12/02 10:42:31;;;;;;;1.55;1.20;;;4.70;99.90;;;;;;5069091;28;20048;-68
2021/12/02 10:45:01;;;;;;;2.70;1.30;;;4.70;99.90;;;;;;5069122;28;20130;-68
2021/12/02 10:47:27;;;;;;;3.67;1.30;;;4.70;99.90;;;;;;5068994;28;20117;-68
2021/12/02 10:49:57;;;;;;;2.20;1.10;;;4.70;99.90;;;;;;5069420;28;20472;-68
2021/12/02 10:52:28;;;;;;;2.30;1.30;;;4.80;99.90;;;;;;5070393;28;20045;-68
2021/12/02 10:55:02;;;;;;;4.88;1.33;;;4.70;99.90;;;;;;5069372;28;20090;-68
2021/12/02 10:57:29;;;;;;;3.60;1.80;;;4.80;99.90;;;;;;5069470;28;20048;-68
2021/12/02 11:00:11;;;;;;;2.85;1.23;;;4.90;99.90;;;;;;5069073;28;20044;-68
2021/12/02 11:02:40;;;;;;;1.23;1.13;;;4.80;99.90;;;;;;5070415;28;20480;-68
2021/12/02 11:05:11;;;;;;;4.57;1.30;;;4.80;99.90;;;;;;5069333;28;20075;-68
2021/12/02 11:07:41;;;;;;;1.40;1.17;;;4.80;99.90;;;;;;5070506;28;20497;-69
2021/12/02 11:10:12;;;;;;;3.40;1.35;;;4.90;99.90;;;;;;5069162;28;20119;-68
2021/12/02 11:12:41;;;;;;;2.10;0.88;;;4.90;99.90;;;;;;5070776;28;20041;-69
2021/12/02 11:15:15;;;;;;;3.05;1.38;;;4.90;99.90;;;;;;5072555;28;20045;-69
2021/12/02 11:17:53;;;;;;;2.78;1.48;;;4.90;99.90;;;;;;5074139;28;20047;-68
2021/12/02 11:20:29;;;;;;;3.60;1.45;;;4.90;99.90;;;;;;5073987;28;20075;-68
2021/12/02 11:23:09;;;;;;;1.27;1.10;;;5.00;99.90;;;;;;5072453;28;20115;-68
2021/12/02 11:25:38;;;;;;;0.75;0.75;;;4.90;99.90;;;;;;5072630;28;20086;-68
2021/12/02 11:28:05;;;;;;;0.82;0.82;;;4.60;99.90;;;;;;5073920;28;20100;-69
2021/12/02 11:30:31;;;;;;;0.80;0.80;;;4.30;99.90;;;;;;5072541;28;20079;-69
2021/12/02 11:32:59;;;;;;;1.83;0.80;;;4.20;99.90;;;;;;5073389;28;20102;-68
2021/12/02 11:35:35;;;;;;;3.45;0.85;;;4.10;99.90;;;;;;5072154;28;20080;-67
2021/12/02 11:38:05;;;;;;;3.28;1.00;;;4.00;99.90;;;;;;5072579;28;20396;-67
2021/12/02 11:40:39;;;;;;;1.15;0.80;;;4.00;99.90;;;;;;5073434;28;20484;-67
2021/12/02 11:43:10;;;;;;;0.93;0.88;;;4.00;99.90;;;;;;5073263;28;20040;-67
2021/12/02 11:45:43;;;;;;;1.95;0.85;;;4.00;99.90;;;;;;5073284;28;20040;-67
2021/12/02 11:48:10;;;;;;;2.35;0.90;;;4.00;99.90;;;;;;5073447;28;20518;-67
2021/12/02 11:50:36;;;;;;;2.05;1.15;;;4.10;99.90;;;;;;5073488;28;20044;-67
2021/12/02 11:53:02;;;;;;;1.42;1.33;;;4.10;99.90;;;;;;5073145;28;20179;-67
2021/12/02 11:55:38;;;;;;;1.00;1.00;;;4.10;99.90;;;;;;5071836;28;20334;-68
2021/12/02 11:58:04;;;;;;;1.23;1.10;;;4.10;99.90;;;;;;5073165;28;20074;-68
2021/12/02 12:00:30;;;;;;;1.50;1.23;;;4.10;99.90;;;;;;5071753;28;20048;-68
2021/12/02 12:03:03;;;;;;;1.17;1.05;;;4.10;99.90;;;;;;5072839;28;20433;-67
2021/12/02 12:05:33;;;;;;;0.90;0.90;;;4.20;99.90;;;;;;5073185;28;20036;-68
2021/12/02 12:07:59;;;;;;;1.77;1.00;;;4.20;99.90;;;;;;5071640;28;20536;-68
2021/12/02 12:10:27;;;;;;;0.90;0.90;;;4.10;99.90;;;;;;5071726;28;20041;-68
2021/12/02 12:13:14;;;;;;;0.80;0.80;;;4.10;99.90;;;;;;5072854;28;20473;-68
2021/12/02 12:15:44;;;;;;;0.82;0.82;;;4.10;99.90;;;;;;5071447;28;20033;-68
2021/12/02 12:18:18;;;;;;;1.02;1.00;;;4.10;99.90;;;;;;5072779;28;20036;-68
2021/12/02 12:21:02;;;;;;;0.90;0.90;;;4.10;99.90;;;;;;5072659;28;20098;-68
2021/12/02 12:23:58;;;;;;;2.30;0.70;;;4.10;99.90;;;;;;5071194;28;20043;-68
2021/12/02 12:26:32;;;;;;;0.82;0.73;;;4.10;99.90;;;;;;5071272;28;20123;-68
2021/12/02 12:29:03;;;;;;;0.80;0.80;;;4.20;99.90;;;;;;5072597;28;20119;-68
2021/12/02 12:31:42;;;;;;;1.10;1.10;;;4.10;99.90;;;;;;5071608;28;20090;-67
2021/12/02 12:37:22;;;;;;;0.90;0.90;;;4.00;99.90;;;;;;5071401;28;20051;-68
2021/12/02 12:40:31;;;;;;;0.75;0.75;;;4.00;99.90;;;;;;5072670;28;20473;-68
2021/12/02 12:43:02;;;;;;;1.40;0.80;;;4.00;99.90;;;;;;5059662;28;20088;-68
2021/12/02 12:45:36;;;;;;;0.90;0.90;;;4.10;99.90;;;;;;5070533;28;20472;-68
2021/12/02 12:48:09;;;;;;;0.88;0.88;;;4.00;99.90;;;;;;5072429;28;20123;-68
2021/12/02 12:50:46;;;;;;;0.80;0.80;;;4.00;99.90;;;;;;5071336;28;20125;-68
2021/12/02 12:53:18;;;;;;;0.90;0.90;;;4.00;99.90;;;;;;5072184;28;20048;-68
2021/12/02 12:56:03;;;;;;;0.80;0.80;;;4.00;99.90;;;;;;5072316;28;20149;-68
2021/12/02 12:58:31;;;;;;;1.90;1.00;;;4.00;99.90;;;;;;5071027;28;20098;-68
2021/12/02 13:01:04;;;;;;;1.30;1.20;;;4.00;99.90;;;;;;5070861;28;20135;-69
2021/12/02 13:03:44;;;;;;;;;;;3.90;99.90;;;;;;5072270;28;20147;-68
2021/12/02 13:06:25;;;;;;;2.05;1.00;;;3.90;99.90;;;;;;5072194;28;19945;-68
2021/12/02 13:08:57;;;;;;;1.90;1.27;;;3.90;99.90;;;;;;5070865;28;20121;-69
2021/12/02 13:11:24;;;;;;;1.67;1.30;;;3.80;99.90;;;;;;5070619;28;20036;-69
2021/12/02 13:13:52;;;;;;;1.00;1.00;;;3.90;99.90;;;;;;5069987;28;20036;-68
2021/12/02 13:16:19;;;;;;;1.00;1.00;;;3.80;99.90;;;;;;5071523;28;20090;-68
2021/12/02 13:18:51;;;;;;;1.27;1.17;;;3.70;99.90;;;;;;5070507;28;20051;-68
2021/12/02 13:21:30;;;;;;;1.48;1.33;;;3.70;99.90;;;;;;5071505;28;20044;-69
2021/12/02 13:24:18;;;;;;;1.58;1.48;;;3.80;99.90;;;;;;5071452;28;20048;-68
2021/12/02 13:26:58;;;;;;;1.77;1.67;;;3.80;99.90;;;;;;5071451;28;20041;-68
2021/12/02 13:29:30;;;;;;;2.60;2.35;;;3.80;99.90;;;;;;5071652;28;20051;-68
2021/12/02 13:32:04;;;;;;;3.80;2.20;;;3.70;99.90;;;;;;5071371;28;20033;-68
2021/12/02 13:34:31;;;;;;;3.20;1.42;;;3.60;99.90;;;;;;5069842;28;20290;-69
2021/12/02 13:37:04;;;;;;;6.93;1.60;;;3.50;99.90;;;;;;5070836;28;20048;-68
2021/12/02 13:39:36;;;;;;;1.38;1.27;;;3.50;99.90;;;;;;5069948;28;20054;-68